»·PEaware :: AAL2244 KLAS-KLAX

AAL2244 :: KLAS-KLAX

FLIGHT INFORMATION

Flight Status: Arrived
Operator:
American Airlines
More flights by this operator :: More flights under this callsign
Pilot: Jordan S. (14404)
Aircraft: BOEING 737-800
(B738)
More flights by this aircraft type
Origin: KLAS McCarran Intl
United States
Destination: KLAX Los Angeles Intl
United States
More flights between these airports :: More routes between these airports
Route: BOACH8 RIKII SHTNR ANJLL2
File this flight plan on PilotEdge
Remarks:
Altitude:
(Current/Filed)
28,000ft
Speed:
(Current/Filed)
600kts
Departed: 18-Nov-17 08:30 PM
Arrived: 18-Nov-17 09:10 PM
Distance/Time
Traveled:
205nm/0:40
Distance/Time
To Go:
Arrived

Flight Plot

Page will automatically refresh every two minutes.

Flight plan parsing failed; only flown route is shown


Map Options




Map Legend


Flown Route
Filed Route
Departure Airport
Arrival Airport
Navaid (VOR, NDB)
Fix

Horizontal Profiles

Position Reports

Time Latitude Longitude Heading Altitude Ground
Speed
18-Nov-17 20:14 36.085354 -115.154898 92 2149ft 0kts
18-Nov-17 20:15 36.085354 -115.154898 92 2149ft 0kts
18-Nov-17 20:16 36.085354 -115.154898 92 2149ft 0kts
18-Nov-17 20:17 36.085354 -115.154898 92 2149ft 0kts
18-Nov-17 20:18 36.085354 -115.154898 92 2149ft 0kts
18-Nov-17 20:19 36.085354 -115.154898 92 2149ft 0kts
18-Nov-17 20:20 36.085354 -115.154896 92 2149ft 0kts
18-Nov-17 20:21 36.085354 -115.154896 92 2149ft 0kts
18-Nov-17 20:22 36.085354 -115.154896 92 2149ft 0kts
18-Nov-17 20:23 36.085363 -115.155173 92 2149ft 3kts
18-Nov-17 20:24 36.085030 -115.155735 1 2149ft 0kts
18-Nov-17 20:25 36.085583 -115.155876 359 2149ft 8kts
18-Nov-17 20:26 36.087500 -115.154788 50 2149ft 5kts
18-Nov-17 20:27 36.087910 -115.154509 274 2149ft 0kts
18-Nov-17 20:28 36.087910 -115.154509 274 2149ft 0kts
18-Nov-17 20:29 36.087910 -115.154509 274 2149ft 0kts
18-Nov-17 20:30 36.090628 -115.155080 351 2149ft 0kts
18-Nov-17 20:31 36.091551 -115.155245 2 2149ft 15kts
18-Nov-17 20:32 36.096022 -115.152798 24 2149ft 20kts
18-Nov-17 20:33 36.097995 -115.152458 296 2149ft 0kts
18-Nov-17 20:34 36.097995 -115.152458 296 2149ft 0kts
18-Nov-17 20:35 36.085183 -115.161203 204 2166ft 161kts
18-Nov-17 20:36 36.035111 -115.190050 204 3981ft 223kts
18-Nov-17 20:37 35.994862 -115.248333 241 5607ft 256kts
18-Nov-17 20:38 35.943313 -115.304210 188 7587ft 287kts
18-Nov-17 20:39 35.851769 -115.315171 180 9755ft 339kts
18-Nov-17 20:40 35.769214 -115.305327 174 11607ft 294kts
18-Nov-17 20:41 35.679805 -115.294915 175 13755ft 364kts
18-Nov-17 20:42 35.572373 -115.298785 182 15828ft 400kts
18-Nov-17 20:43 35.464479 -115.326956 213 17799ft 411kts
18-Nov-17 20:44 35.366368 -115.402401 210 19826ft 424kts
18-Nov-17 20:45 35.263929 -115.476862 211 21833ft 436kts
18-Nov-17 20:46 35.158151 -115.553649 210 23846ft 450kts
18-Nov-17 20:47 35.063593 -115.654224 227 25841ft 463kts
18-Nov-17 20:48 34.973820 -115.769434 225 27847ft 477kts
18-Nov-17 20:49 34.881359 -115.886499 226 27999ft 479kts
18-Nov-17 20:50 34.789426 -116.003215 226 27643ft 477kts
18-Nov-17 20:51 34.698684 -116.118279 226 26532ft 468kts
18-Nov-17 20:52 34.609661 -116.231564 226 25427ft 461kts
18-Nov-17 20:53 34.521985 -116.343094 226 24320ft 453kts
18-Nov-17 20:54 34.437353 -116.450877 226 24001ft 451kts
18-Nov-17 20:55 34.373346 -116.579822 245 24002ft 451kts
18-Nov-17 20:56 34.322057 -116.707646 243 23800ft 400kts
18-Nov-17 20:57 34.274727 -116.825218 243 21778ft 384kts
18-Nov-17 20:58 34.229001 -116.938629 244 19788ft 373kts
18-Nov-17 20:59 34.191981 -117.053002 252 18409ft 365kts
18-Nov-17 21:00 34.160969 -117.168261 251 17125ft 360kts
18-Nov-17 21:01 34.129870 -117.281094 251 15311ft 349kts
18-Nov-17 21:02 34.100192 -117.390164 253 13570ft 332kts
18-Nov-17 21:03 34.074378 -117.493898 253 11965ft 319kts
18-Nov-17 21:04 34.043625 -117.593412 241 11899ft 320kts
18-Nov-17 21:05 34.007761 -117.684174 254 10659ft 307kts
18-Nov-17 21:06 33.997408 -117.779560 263 8454ft 268kts
18-Nov-17 21:07 33.988997 -117.866214 263 7211ft 254kts
18-Nov-17 21:08 33.980825 -117.949640 263 6223ft 244kts
18-Nov-17 21:09 33.973358 -118.025091 263 5305ft 229kts
18-Nov-17 21:10 33.965998 -118.099671 263 4289ft 221kts
18-Nov-17 21:11 33.959009 -118.168298 263 3367ft 197kts
18-Nov-17 21:12 33.952657 -118.232131 263 2330ft 187kts
18-Nov-17 21:13 33.946765 -118.292416 264 1318ft 172kts
18-Nov-17 21:14 33.940839 -118.349348 261 540ft 169kts
18-Nov-17 21:15 33.935858 -118.397489 272 133ft 31kts
18-Nov-17 21:16 33.936438 -118.398941 299 133ft 2kts
18-Nov-17 21:17 33.936438 -118.402825 264 133ft 0kts
18-Nov-17 21:18 33.936673 -118.403708 309 133ft 8kts
18-Nov-17 21:19 33.937845 -118.404529 331 133ft 0kts
18-Nov-17 21:20 33.939140 -118.404398 81 133ft 14kts
18-Nov-17 21:21 33.940302 -118.400684 351 133ft 8kts
18-Nov-17 21:22 33.940991 -118.401422 264 133ft 0kts
18-Nov-17 21:23 33.940991 -118.401422 264 133ft 0kts
18-Nov-17 21:24 33.940991 -118.401422 264 133ft 0kts

Navigation Log

Ident Type
Flight plan parsing failed, navigation log unavailable